sensor_id;sensor_type;location;lat;lon;timestamp;P1;durP1;ratioP1;P2;durP2;ratioP2
59161;SDS011;44942;48.936;8.260;2024-01-16T00:04:58;2.77;;;2.20;;
59161;SDS011;44942;48.936;8.260;2024-01-16T00:09:58;2.47;;;2.10;;
59161;SDS011;44942;48.936;8.260;2024-01-16T00:14:59;3.33;;;2.67;;
59161;SDS011;44942;48.936;8.260;2024-01-16T00:19:59;3.43;;;2.10;;
59161;SDS011;44942;48.936;8.260;2024-01-16T00:25:00;3.05;;;2.20;;
59161;SDS011;44942;48.936;8.260;2024-01-16T00:30:01;2.37;;;2.07;;
59161;SDS011;44942;48.936;8.260;2024-01-16T00:35:02;2.67;;;2.03;;
59161;SDS011;44942;48.936;8.260;2024-01-16T00:40:04;2.30;;;2.10;;
59161;SDS011;44942;48.936;8.260;2024-01-16T00:50:05;3.13;;;2.30;;
59161;SDS011;44942;48.936;8.260;2024-01-16T00:55:06;2.57;;;2.27;;
59161;SDS011;44942;48.936;8.260;2024-01-16T01:00:07;2.63;;;2.22;;
59161;SDS011;44942;48.936;8.260;2024-01-16T01:05:09;3.40;;;2.13;;
59161;SDS011;44942;48.936;8.260;2024-01-16T01:10:10;2.53;;;2.23;;
59161;SDS011;44942;48.936;8.260;2024-01-16T01:15:11;3.27;;;2.37;;
59161;SDS011;44942;48.936;8.260;2024-01-16T01:20:13;3.38;;;2.10;;
59161;SDS011;44942;48.936;8.260;2024-01-16T01:30:15;2.23;;;2.03;;
59161;SDS011;44942;48.936;8.260;2024-01-16T01:35:16;2.10;;;1.90;;
59161;SDS011;44942;48.936;8.260;2024-01-16T01:40:19;2.65;;;1.95;;
59161;SDS011;44942;48.936;8.260;2024-01-16T01:45:20;5.50;;;2.50;;
59161;SDS011;44942;48.936;8.260;2024-01-16T01:50:21;3.23;;;2.23;;
59161;SDS011;44942;48.936;8.260;2024-01-16T01:55:22;2.27;;;2.00;;
59161;SDS011;44942;48.936;8.260;2024-01-16T02:00:22;2.43;;;2.17;;
59161;SDS011;44942;48.936;8.260;2024-01-16T02:05:23;2.90;;;2.08;;
59161;SDS011;44942;48.936;8.260;2024-01-16T02:10:24;3.40;;;2.07;;
59161;SDS011;44942;48.936;8.260;2024-01-16T02:15:24;2.27;;;2.00;;
59161;SDS011;44942;48.936;8.260;2024-01-16T02:20:25;2.60;;;2.13;;
59161;SDS011;44942;48.936;8.260;2024-01-16T02:25:26;5.60;;;2.00;;
59161;SDS011;44942;48.936;8.260;2024-01-16T02:30:26;3.45;;;2.08;;
59161;SDS011;44942;48.936;8.260;2024-01-16T02:35:27;2.77;;;2.03;;
59161;SDS011;44942;48.936;8.260;2024-01-16T02:40:28;2.88;;;2.15;;
59161;SDS011;44942;48.936;8.260;2024-01-16T02:45:28;2.73;;;2.30;;
59161;SDS011;44942;48.936;8.260;2024-01-16T02:50:29;3.20;;;2.03;;
59161;SDS011;44942;48.936;8.260;2024-01-16T02:55:30;1.83;;;1.67;;
59161;SDS011;44942;48.936;8.260;2024-01-16T03:00:30;2.33;;;1.77;;
59161;SDS011;44942;48.936;8.260;2024-01-16T03:05:31;3.00;;;2.20;;
59161;SDS011;44942;48.936;8.260;2024-01-16T03:10:31;3.47;;;2.17;;
59161;SDS011;44942;48.936;8.260;2024-01-16T03:15:32;3.17;;;2.33;;
59161;SDS011;44942;48.936;8.260;2024-01-16T03:20:32;2.47;;;2.00;;
59161;SDS011;44942;48.936;8.260;2024-01-16T03:25:33;2.97;;;1.93;;
59161;SDS011;44942;48.936;8.260;2024-01-16T03:30:38;3.55;;;2.10;;
59161;SDS011;44942;48.936;8.260;2024-01-16T03:35:39;2.93;;;2.40;;
59161;SDS011;44942;48.936;8.260;2024-01-16T03:40:39;2.67;;;2.17;;
59161;SDS011;44942;48.936;8.260;2024-01-16T03:45:40;2.73;;;1.93;;
59161;SDS011;44942;48.936;8.260;2024-01-16T03:50:40;2.17;;;1.90;;
59161;SDS011;44942;48.936;8.260;2024-01-16T03:55:43;2.60;;;2.38;;
59161;SDS011;44942;48.936;8.260;2024-01-16T04:00:45;2.78;;;2.20;;
59161;SDS011;44942;48.936;8.260;2024-01-16T04:05:45;3.45;;;2.53;;
59161;SDS011;44942;48.936;8.260;2024-01-16T04:10:46;3.77;;;2.20;;
59161;SDS011;44942;48.936;8.260;2024-01-16T04:15:46;2.30;;;2.07;;
59161;SDS011;44942;48.936;8.260;2024-01-16T04:20:47;3.03;;;2.17;;
59161;SDS011;44942;48.936;8.260;2024-01-16T04:25:48;3.07;;;2.40;;
59161;SDS011;44942;48.936;8.260;2024-01-16T04:30:48;2.37;;;2.17;;
59161;SDS011;44942;48.936;8.260;2024-01-16T04:35:49;2.97;;;2.10;;
59161;SDS011;44942;48.936;8.260;2024-01-16T04:40:50;2.90;;;2.20;;
59161;SDS011;44942;48.936;8.260;2024-01-16T04:45:50;2.50;;;2.30;;
59161;SDS011;44942;48.936;8.260;2024-01-16T04:50:51;2.73;;;2.20;;
59161;SDS011;44942;48.936;8.260;2024-01-16T04:55:51;2.43;;;2.23;;
59161;SDS011;44942;48.936;8.260;2024-01-16T05:00:52;3.00;;;2.30;;
59161;SDS011;44942;48.936;8.260;2024-01-16T05:05:53;2.80;;;2.37;;
59161;SDS011;44942;48.936;8.260;2024-01-16T05:10:53;2.93;;;2.23;;
59161;SDS011;44942;48.936;8.260;2024-01-16T05:15:54;2.50;;;2.20;;
59161;SDS011;44942;48.936;8.260;2024-01-16T05:20:55;3.23;;;2.30;;
59161;SDS011;44942;48.936;8.260;2024-01-16T05:25:58;2.63;;;2.40;;
59161;SDS011;44942;48.936;8.260;2024-01-16T05:30:59;3.00;;;2.50;;
59161;SDS011;44942;48.936;8.260;2024-01-16T05:36:00;6.05;;;2.80;;
59161;SDS011;44942;48.936;8.260;2024-01-16T05:41:02;4.50;;;3.20;;
59161;SDS011;44942;48.936;8.260;2024-01-16T05:46:03;7.20;;;4.60;;
59161;SDS011;44942;48.936;8.260;2024-01-16T05:51:04;10.07;;;6.87;;
59161;SDS011;44942;48.936;8.260;2024-01-16T05:56:05;12.23;;;7.15;;
59161;SDS011;44942;48.936;8.260;2024-01-16T06:01:05;23.23;;;8.73;;
59161;SDS011;44942;48.936;8.260;2024-01-16T06:06:06;14.90;;;9.70;;
59161;SDS011;44942;48.936;8.260;2024-01-16T06:11:10;16.80;;;10.20;;
59161;SDS011;44942;48.936;8.260;2024-01-16T06:16:10;20.17;;;11.20;;
59161;SDS011;44942;48.936;8.260;2024-01-16T06:21:11;15.50;;;10.57;;
59161;SDS011;44942;48.936;8.260;2024-01-16T06:26:15;17.67;;;10.63;;
59161;SDS011;44942;48.936;8.260;2024-01-16T06:31:16;19.50;;;10.90;;
59161;SDS011;44942;48.936;8.260;2024-01-16T06:36:16;20.05;;;11.52;;
59161;SDS011;44942;48.936;8.260;2024-01-16T06:41:17;17.70;;;10.50;;
59161;SDS011;44942;48.936;8.260;2024-01-16T06:46:18;20.38;;;11.18;;
59161;SDS011;44942;48.936;8.260;2024-01-16T06:51:18;16.37;;;10.60;;
59161;SDS011;44942;48.936;8.260;2024-01-16T06:56:19;23.07;;;11.27;;
59161;SDS011;44942;48.936;8.260;2024-01-16T07:01:20;17.83;;;10.73;;
59161;SDS011;44942;48.936;8.260;2024-01-16T07:06:20;18.00;;;10.03;;
59161;SDS011;44942;48.936;8.260;2024-01-16T07:11:21;14.00;;;8.70;;
59161;SDS011;44942;48.936;8.260;2024-01-16T07:16:21;13.17;;;9.27;;
59161;SDS011;44942;48.936;8.260;2024-01-16T07:21:22;17.80;;;9.73;;
59161;SDS011;44942;48.936;8.260;2024-01-16T07:26:23;15.53;;;8.27;;
59161;SDS011;44942;48.936;8.260;2024-01-16T07:31:24;17.30;;;8.57;;
59161;SDS011;44942;48.936;8.260;2024-01-16T07:36:25;14.13;;;8.73;;
59161;SDS011;44942;48.936;8.260;2024-01-16T07:41:25;14.40;;;8.57;;
59161;SDS011;44942;48.936;8.260;2024-01-16T07:46:26;12.20;;;8.30;;
59161;SDS011;44942;48.936;8.260;2024-01-16T07:51:27;16.60;;;8.10;;
59161;SDS011;44942;48.936;8.260;2024-01-16T07:56:27;18.30;;;12.47;;
59161;SDS011;44942;48.936;8.260;2024-01-16T08:01:28;16.53;;;13.80;;
59161;SDS011;44942;48.936;8.260;2024-01-16T08:06:29;13.68;;;9.98;;
59161;SDS011;44942;48.936;8.260;2024-01-16T08:11:30;12.45;;;9.95;;
59161;SDS011;44942;48.936;8.260;2024-01-16T08:16:31;10.95;;;8.82;;
59161;SDS011;44942;48.936;8.260;2024-01-16T08:21:32;13.17;;;8.33;;
59161;SDS011;44942;48.936;8.260;2024-01-16T08:26:32;12.03;;;8.60;;
59161;SDS011;44942;48.936;8.260;2024-01-16T08:31:33;10.73;;;7.27;;
59161;SDS011;44942;48.936;8.260;2024-01-16T08:36:33;12.20;;;7.80;;
59161;SDS011;44942;48.936;8.260;2024-01-16T08:41:34;11.40;;;7.40;;
59161;SDS011;44942;48.936;8.260;2024-01-16T08:46:34;9.93;;;7.13;;
59161;SDS011;44942;48.936;8.260;2024-01-16T08:51:35;9.37;;;6.70;;
59161;SDS011;44942;48.936;8.260;2024-01-16T08:56:36;9.47;;;6.70;;
59161;SDS011;44942;48.936;8.260;2024-01-16T09:01:36;8.13;;;6.43;;
59161;SDS011;44942;48.936;8.260;2024-01-16T09:06:37;8.57;;;6.35;;
59161;SDS011;44942;48.936;8.260;2024-01-16T09:11:38;8.33;;;6.30;;
59161;SDS011;44942;48.936;8.260;2024-01-16T09:16:38;7.60;;;6.03;;
59161;SDS011;44942;48.936;8.260;2024-01-16T09:21:40;7.53;;;5.70;;
59161;SDS011;44942;48.936;8.260;2024-01-16T09:26:41;7.57;;;5.65;;
59161;SDS011;44942;48.936;8.260;2024-01-16T09:31:42;8.33;;;5.93;;
59161;SDS011;44942;48.936;8.260;2024-01-16T09:36:42;8.13;;;5.20;;
59161;SDS011;44942;48.936;8.260;2024-01-16T09:41:44;7.70;;;5.50;;
59161;SDS011;44942;48.936;8.260;2024-01-16T09:46:45;7.18;;;5.18;;
59161;SDS011;44942;48.936;8.260;2024-01-16T09:51:47;7.53;;;5.22;;
59161;SDS011;44942;48.936;8.260;2024-01-16T09:56:47;6.67;;;4.77;;
59161;SDS011;44942;48.936;8.260;2024-01-16T10:01:54;8.35;;;5.03;;
59161;SDS011;44942;48.936;8.260;2024-01-16T10:06:55;7.43;;;5.57;;
59161;SDS011;44942;48.936;8.260;2024-01-16T10:11:58;6.63;;;4.95;;
59161;SDS011;44942;48.936;8.260;2024-01-16T10:17:00;11.35;;;6.03;;
59161;SDS011;44942;48.936;8.260;2024-01-16T10:22:05;7.93;;;6.20;;
59161;SDS011;44942;48.936;8.260;2024-01-16T10:27:08;9.23;;;6.43;;
59161;SDS011;44942;48.936;8.260;2024-01-16T10:32:09;14.60;;;6.37;;
59161;SDS011;44942;48.936;8.260;2024-01-16T10:37:09;8.90;;;5.67;;
59161;SDS011;44942;48.936;8.260;2024-01-16T10:42:10;9.80;;;6.22;;
59161;SDS011;44942;48.936;8.260;2024-01-16T10:47:15;10.93;;;6.22;;
59161;SDS011;44942;48.936;8.260;2024-01-16T10:52:16;10.10;;;6.57;;
59161;SDS011;44942;48.936;8.260;2024-01-16T10:57:18;9.23;;;5.78;;
59161;SDS011;44942;48.936;8.260;2024-01-16T11:02:19;9.02;;;5.78;;
59161;SDS011;44942;48.936;8.260;2024-01-16T11:07:24;11.15;;;5.90;;
59161;SDS011;44942;48.936;8.260;2024-01-16T11:12:26;8.77;;;5.65;;
59161;SDS011;44942;48.936;8.260;2024-01-16T11:17:27;7.73;;;5.97;;
59161;SDS011;44942;48.936;8.260;2024-01-16T11:22:31;8.15;;;5.88;;
59161;SDS011;44942;48.936;8.260;2024-01-16T11:27:32;8.13;;;5.28;;
59161;SDS011;44942;48.936;8.260;2024-01-16T11:32:36;6.37;;;5.23;;
59161;SDS011;44942;48.936;8.260;2024-01-16T11:37:41;7.53;;;5.38;;
59161;SDS011;44942;48.936;8.260;2024-01-16T11:42:43;6.80;;;5.13;;
59161;SDS011;44942;48.936;8.260;2024-01-16T11:47:44;5.90;;;4.95;;
59161;SDS011;44942;48.936;8.260;2024-01-16T11:52:44;8.47;;;5.27;;
59161;SDS011;44942;48.936;8.260;2024-01-16T11:57:50;7.72;;;5.03;;
59161;SDS011;44942;48.936;8.260;2024-01-16T12:02:56;6.85;;;4.75;;
59161;SDS011;44942;48.936;8.260;2024-01-16T12:07:57;6.18;;;4.57;;
59161;SDS011;44942;48.936;8.260;2024-01-16T12:12:58;6.22;;;4.22;;
59161;SDS011;44942;48.936;8.260;2024-01-16T12:18:00;5.40;;;4.20;;
59161;SDS011;44942;48.936;8.260;2024-01-16T12:28:05;5.73;;;4.67;;
59161;SDS011;44942;48.936;8.260;2024-01-16T12:33:07;5.38;;;4.43;;
59161;SDS011;44942;48.936;8.260;2024-01-16T12:38:09;4.88;;;4.03;;
59161;SDS011;44942;48.936;8.260;2024-01-16T12:43:10;5.13;;;4.22;;
59161;SDS011;44942;48.936;8.260;2024-01-16T12:48:11;5.07;;;4.00;;
59161;SDS011;44942;48.936;8.260;2024-01-16T13:03:17;4.65;;;3.78;;
59161;SDS011;44942;48.936;8.260;2024-01-16T13:08:19;4.45;;;3.75;;
59161;SDS011;44942;48.936;8.260;2024-01-16T13:13:21;4.68;;;3.75;;
59161;SDS011;44942;48.936;8.260;2024-01-16T13:23:24;5.10;;;3.45;;
59161;SDS011;44942;48.936;8.260;2024-01-16T13:28:25;4.40;;;3.45;;
59161;SDS011;44942;48.936;8.260;2024-01-16T13:33:27;7.47;;;3.22;;
59161;SDS011;44942;48.936;8.260;2024-01-16T13:38:27;4.20;;;3.00;;
59161;SDS011;44942;48.936;8.260;2024-01-16T13:43:28;4.13;;;3.43;;
59161;SDS011;44942;48.936;8.260;2024-01-16T13:48:28;5.73;;;2.93;;
59161;SDS011;44942;48.936;8.260;2024-01-16T13:53:30;7.57;;;3.45;;
59161;SDS011;44942;48.936;8.260;2024-01-16T13:58:30;4.22;;;3.08;;
59161;SDS011;44942;48.936;8.260;2024-01-16T14:03:31;4.88;;;2.97;;
59161;SDS011;44942;48.936;8.260;2024-01-16T14:08:32;5.80;;;3.00;;
59161;SDS011;44942;48.936;8.260;2024-01-16T14:13:33;5.78;;;2.90;;
59161;SDS011;44942;48.936;8.260;2024-01-16T14:18:33;4.17;;;2.83;;
59161;SDS011;44942;48.936;8.260;2024-01-16T14:23:34;4.93;;;3.00;;
59161;SDS011;44942;48.936;8.260;2024-01-16T14:28:34;20.70;;;7.13;;
59161;SDS011;44942;48.936;8.260;2024-01-16T14:33:38;17.00;;;7.90;;
59161;SDS011;44942;48.936;8.260;2024-01-16T14:38:38;10.48;;;6.68;;
59161;SDS011;44942;48.936;8.260;2024-01-16T14:43:39;13.57;;;7.47;;
59161;SDS011;44942;48.936;8.260;2024-01-16T14:48:46;9.85;;;7.03;;
59161;SDS011;44942;48.936;8.260;2024-01-16T14:53:46;9.57;;;6.68;;
59161;SDS011;44942;48.936;8.260;2024-01-16T14:58:47;10.33;;;7.07;;
59161;SDS011;44942;48.936;8.260;2024-01-16T15:03:48;9.35;;;7.50;;
59161;SDS011;44942;48.936;8.260;2024-01-16T15:08:49;9.13;;;7.90;;
59161;SDS011;44942;48.936;8.260;2024-01-16T15:13:49;9.83;;;7.83;;
59161;SDS011;44942;48.936;8.260;2024-01-16T15:18:50;10.93;;;7.70;;
59161;SDS011;44942;48.936;8.260;2024-01-16T15:23:51;11.33;;;7.30;;
59161;SDS011;44942;48.936;8.260;2024-01-16T15:28:51;9.37;;;7.67;;
59161;SDS011;44942;48.936;8.260;2024-01-16T15:33:52;9.20;;;6.97;;
59161;SDS011;44942;48.936;8.260;2024-01-16T15:38:52;8.13;;;6.67;;
59161;SDS011;44942;48.936;8.260;2024-01-16T15:43:53;9.50;;;7.53;;
59161;SDS011;44942;48.936;8.260;2024-01-16T15:48:53;9.57;;;6.57;;
59161;SDS011;44942;48.936;8.260;2024-01-16T15:53:56;8.52;;;5.90;;
59161;SDS011;44942;48.936;8.260;2024-01-16T15:58:56;13.17;;;6.83;;
59161;SDS011;44942;48.936;8.260;2024-01-16T16:03:57;16.10;;;8.73;;
59161;SDS011;44942;48.936;8.260;2024-01-16T16:08:58;23.75;;;10.30;;
59161;SDS011;44942;48.936;8.260;2024-01-16T16:14:00;23.20;;;11.57;;
59161;SDS011;44942;48.936;8.260;2024-01-16T16:19:03;26.33;;;12.02;;
59161;SDS011;44942;48.936;8.260;2024-01-16T16:24:04;33.45;;;13.02;;
59161;SDS011;44942;48.936;8.260;2024-01-16T16:29:09;27.40;;;13.50;;
59161;SDS011;44942;48.936;8.260;2024-01-16T16:34:11;33.13;;;14.38;;
59161;SDS011;44942;48.936;8.260;2024-01-16T16:39:18;29.40;;;13.57;;
59161;SDS011;44942;48.936;8.260;2024-01-16T16:44:18;28.73;;;14.63;;
59161;SDS011;44942;48.936;8.260;2024-01-16T16:49:19;28.87;;;13.50;;
59161;SDS011;44942;48.936;8.260;2024-01-16T16:54:19;23.77;;;13.17;;
59161;SDS011;44942;48.936;8.260;2024-01-16T16:59:20;30.40;;;13.13;;
59161;SDS011;44942;48.936;8.260;2024-01-16T17:04:20;21.30;;;11.60;;
59161;SDS011;44942;48.936;8.260;2024-01-16T17:09:22;21.63;;;12.10;;
59161;SDS011;44942;48.936;8.260;2024-01-16T17:14:23;22.67;;;11.03;;
59161;SDS011;44942;48.936;8.260;2024-01-16T17:19:23;20.47;;;10.70;;
59161;SDS011;44942;48.936;8.260;2024-01-16T17:24:24;19.83;;;10.60;;
59161;SDS011;44942;48.936;8.260;2024-01-16T17:29:24;23.00;;;10.00;;
59161;SDS011;44942;48.936;8.260;2024-01-16T17:34:25;18.13;;;9.30;;
59161;SDS011;44942;48.936;8.260;2024-01-16T17:39:25;21.03;;;8.60;;
59161;SDS011;44942;48.936;8.260;2024-01-16T17:44:27;15.10;;;8.63;;
59161;SDS011;44942;48.936;8.260;2024-01-16T17:49:31;16.70;;;8.85;;
59161;SDS011;44942;48.936;8.260;2024-01-16T17:54:33;16.15;;;8.05;;
59161;SDS011;44942;48.936;8.260;2024-01-16T17:59:40;16.15;;;7.50;;
59161;SDS011;44942;48.936;8.260;2024-01-16T18:04:40;15.43;;;7.75;;
59161;SDS011;44942;48.936;8.260;2024-01-16T18:09:41;12.83;;;7.17;;
59161;SDS011;44942;48.936;8.260;2024-01-16T18:14:45;14.85;;;7.30;;
59161;SDS011;44942;48.936;8.260;2024-01-16T18:19:46;12.73;;;6.90;;
59161;SDS011;44942;48.936;8.260;2024-01-16T18:24:50;15.05;;;7.45;;
59161;SDS011;44942;48.936;8.260;2024-01-16T18:29:52;13.63;;;6.50;;
59161;SDS011;44942;48.936;8.260;2024-01-16T18:39:54;11.20;;;6.47;;
59161;SDS011;44942;48.936;8.260;2024-01-16T18:44:55;11.30;;;6.20;;
59161;SDS011;44942;48.936;8.260;2024-01-16T18:49:56;11.00;;;6.37;;
59161;SDS011;44942;48.936;8.260;2024-01-16T18:54:56;10.40;;;6.17;;
59161;SDS011;44942;48.936;8.260;2024-01-16T18:59:57;9.07;;;5.90;;
59161;SDS011;44942;48.936;8.260;2024-01-16T19:04:57;10.17;;;5.57;;
59161;SDS011;44942;48.936;8.260;2024-01-16T19:09:58;12.70;;;5.80;;
59161;SDS011;44942;48.936;8.260;2024-01-16T19:15:00;9.32;;;5.70;;
59161;SDS011;44942;48.936;8.260;2024-01-16T19:20:01;9.07;;;5.83;;
59161;SDS011;44942;48.936;8.260;2024-01-16T19:25:09;35.35;;;5.70;;
59161;SDS011;44942;48.936;8.260;2024-01-16T19:30:16;11.52;;;5.13;;
59161;SDS011;44942;48.936;8.260;2024-01-16T19:35:19;8.75;;;5.20;;
59161;SDS011;44942;48.936;8.260;2024-01-16T19:40:19;8.00;;;5.00;;
59161;SDS011;44942;48.936;8.260;2024-01-16T19:45:20;11.37;;;5.13;;
59161;SDS011;44942;48.936;8.260;2024-01-16T19:50:22;7.80;;;4.95;;
59161;SDS011;44942;48.936;8.260;2024-01-16T19:55:24;16.25;;;5.22;;
59161;SDS011;44942;48.936;8.260;2024-01-16T20:00:25;8.93;;;4.93;;
59161;SDS011;44942;48.936;8.260;2024-01-16T20:05:26;10.00;;;4.25;;
59161;SDS011;44942;48.936;8.260;2024-01-16T20:10:27;13.75;;;4.80;;
59161;SDS011;44942;48.936;8.260;2024-01-16T20:15:27;9.93;;;4.80;;
59161;SDS011;44942;48.936;8.260;2024-01-16T20:25:33;7.95;;;4.38;;
59161;SDS011;44942;48.936;8.260;2024-01-16T20:30:33;7.50;;;4.30;;
59161;SDS011;44942;48.936;8.260;2024-01-16T20:35:35;10.13;;;4.47;;
59161;SDS011;44942;48.936;8.260;2024-01-16T20:40:36;6.83;;;4.87;;
59161;SDS011;44942;48.936;8.260;2024-01-16T20:45:38;6.43;;;4.15;;
59161;SDS011;44942;48.936;8.260;2024-01-16T20:50:39;7.00;;;4.50;;
59161;SDS011;44942;48.936;8.260;2024-01-16T20:55:40;6.22;;;4.22;;
59161;SDS011;44942;48.936;8.260;2024-01-16T21:00:41;8.50;;;5.63;;
59161;SDS011;44942;48.936;8.260;2024-01-16T21:05:42;10.20;;;7.65;;
59161;SDS011;44942;48.936;8.260;2024-01-16T21:10:43;8.35;;;5.97;;
59161;SDS011;44942;48.936;8.260;2024-01-16T21:15:44;6.90;;;5.77;;
59161;SDS011;44942;48.936;8.260;2024-01-16T21:20:45;7.13;;;5.28;;
59161;SDS011;44942;48.936;8.260;2024-01-16T21:25:46;7.17;;;5.40;;
59161;SDS011;44942;48.936;8.260;2024-01-16T21:30:47;7.43;;;5.13;;
59161;SDS011;44942;48.936;8.260;2024-01-16T21:35:47;6.70;;;4.90;;
59161;SDS011;44942;48.936;8.260;2024-01-16T21:40:48;7.13;;;5.23;;
59161;SDS011;44942;48.936;8.260;2024-01-16T21:45:48;8.87;;;5.00;;
59161;SDS011;44942;48.936;8.260;2024-01-16T21:50:49;7.07;;;4.83;;
59161;SDS011;44942;48.936;8.260;2024-01-16T21:55:49;6.93;;;5.00;;
59161;SDS011;44942;48.936;8.260;2024-01-16T22:00:50;7.73;;;4.93;;
59161;SDS011;44942;48.936;8.260;2024-01-16T22:05:52;6.35;;;4.88;;
59161;SDS011;44942;48.936;8.260;2024-01-16T22:10:56;8.05;;;4.90;;
59161;SDS011;44942;48.936;8.260;2024-01-16T22:15:57;6.90;;;4.93;;
59161;SDS011;44942;48.936;8.260;2024-01-16T22:20:57;5.97;;;4.47;;
59161;SDS011;44942;48.936;8.260;2024-01-16T22:25:58;6.03;;;4.40;;
59161;SDS011;44942;48.936;8.260;2024-01-16T22:31:00;5.60;;;4.68;;
59161;SDS011;44942;48.936;8.260;2024-01-16T22:36:01;6.23;;;4.97;;
59161;SDS011;44942;48.936;8.260;2024-01-16T22:41:03;5.90;;;4.82;;
59161;SDS011;44942;48.936;8.260;2024-01-16T22:46:06;6.40;;;4.78;;
59161;SDS011;44942;48.936;8.260;2024-01-16T22:51:07;6.63;;;5.10;;
59161;SDS011;44942;48.936;8.260;2024-01-16T22:56:09;5.88;;;4.57;;
59161;SDS011;44942;48.936;8.260;2024-01-16T23:01:10;5.60;;;4.43;;
59161;SDS011;44942;48.936;8.260;2024-01-16T23:06:17;6.00;;;4.78;;
59161;SDS011;44942;48.936;8.260;2024-01-16T23:11:21;6.05;;;5.10;;
59161;SDS011;44942;48.936;8.260;2024-01-16T23:16:24;7.05;;;5.15;;
59161;SDS011;44942;48.936;8.260;2024-01-16T23:21:27;6.25;;;4.93;;
59161;SDS011;44942;48.936;8.260;2024-01-16T23:26:28;6.80;;;5.23;;
59161;SDS011;44942;48.936;8.260;2024-01-16T23:31:29;6.35;;;5.60;;
59161;SDS011;44942;48.936;8.260;2024-01-16T23:36:31;6.53;;;5.38;;
59161;SDS011;44942;48.936;8.260;2024-01-16T23:46:33;7.63;;;5.70;;
59161;SDS011;44942;48.936;8.260;2024-01-16T23:51:36;7.80;;;5.70;;
59161;SDS011;44942;48.936;8.260;2024-01-16T23:56:37;6.47;;;5.60;;
